sensor_id;sensor_type;location;lat;lon;timestamp;temperature;humidity
48575;DHT22;34352;51.084;3.712;2023-04-16T00:00:03;8.60;35.50
48575;DHT22;34352;51.084;3.712;2023-04-16T00:02:34;8.50;38.90
48575;DHT22;34352;51.084;3.712;2023-04-16T00:05:15;7.50;34.00
48575;DHT22;34352;51.084;3.712;2023-04-16T00:07:52;7.40;30.90
48575;DHT22;34352;51.084;3.712;2023-04-16T00:10:28;8.40;30.90
48575;DHT22;34352;51.084;3.712;2023-04-16T00:12:54;9.00;35.00
48575;DHT22;34352;51.084;3.712;2023-04-16T00:15:22;8.40;36.40
48575;DHT22;34352;51.084;3.712;2023-04-16T00:17:49;8.20;35.90
48575;DHT22;34352;51.084;3.712;2023-04-16T00:20:16;9.00;35.10
48575;DHT22;34352;51.084;3.712;2023-04-16T00:22:47;8.50;36.40
48575;DHT22;34352;51.084;3.712;2023-04-16T00:25:14;8.50;35.20
48575;DHT22;34352;51.084;3.712;2023-04-16T00:27:46;8.50;35.00
48575;DHT22;34352;51.084;3.712;2023-04-16T00:30:12;8.40;32.00
48575;DHT22;34352;51.084;3.712;2023-04-16T00:32:47;8.40;32.60
48575;DHT22;34352;51.084;3.712;2023-04-16T00:35:13;8.60;37.30
48575;DHT22;34352;51.084;3.712;2023-04-16T00:37:39;8.60;34.40
48575;DHT22;34352;51.084;3.712;2023-04-16T00:40:05;9.50;32.60
48575;DHT22;34352;51.084;3.712;2023-04-16T00:42:39;8.60;35.30
48575;DHT22;34352;51.084;3.712;2023-04-16T00:45:12;8.60;29.30
48575;DHT22;34352;51.084;3.712;2023-04-16T00:47:49;8.70;30.50
48575;DHT22;34352;51.084;3.712;2023-04-16T00:50:28;8.70;29.90
48575;DHT22;34352;51.084;3.712;2023-04-16T00:52:55;8.70;29.20
48575;DHT22;34352;51.084;3.712;2023-04-16T00:55:21;7.80;26.80
48575;DHT22;34352;51.084;3.712;2023-04-16T00:57:48;8.30;23.40
48575;DHT22;34352;51.084;3.712;2023-04-16T01:00:33;7.50;24.10
48575;DHT22;34352;51.084;3.712;2023-04-16T01:03:05;8.50;27.10
48575;DHT22;34352;51.084;3.712;2023-04-16T01:05:40;8.70;26.60
48575;DHT22;34352;51.084;3.712;2023-04-16T01:08:06;8.70;24.60
48575;DHT22;34352;51.084;3.712;2023-04-16T01:10:37;7.80;22.70
48575;DHT22;34352;51.084;3.712;2023-04-16T01:13:11;8.60;21.30
48575;DHT22;34352;51.084;3.712;2023-04-16T01:15:38;9.90;20.80
48575;DHT22;34352;51.084;3.712;2023-04-16T01:18:33;8.60;14.90
48575;DHT22;34352;51.084;3.712;2023-04-16T01:21:01;8.60;13.10
48575;DHT22;34352;51.084;3.712;2023-04-16T01:23:31;8.60;11.50
48575;DHT22;34352;51.084;3.712;2023-04-16T01:25:58;8.40;10.10
48575;DHT22;34352;51.084;3.712;2023-04-16T01:28:37;8.70;10.80
48575;DHT22;34352;51.084;3.712;2023-04-16T01:31:14;8.70;7.50
48575;DHT22;34352;51.084;3.712;2023-04-16T01:33:41;8.40;6.60
48575;DHT22;34352;51.084;3.712;2023-04-16T01:36:09;6.80;8.30
48575;DHT22;34352;51.084;3.712;2023-04-16T01:38:45;8.10;12.50
48575;DHT22;34352;51.084;3.712;2023-04-16T01:41:20;8.60;10.70
48575;DHT22;34352;51.084;3.712;2023-04-16T01:43:53;8.60;12.60
48575;DHT22;34352;51.084;3.712;2023-04-16T01:46:35;9.00;10.70
48575;DHT22;34352;51.084;3.712;2023-04-16T01:49:04;8.70;13.50
48575;DHT22;34352;51.084;3.712;2023-04-16T01:51:33;8.80;8.10
48575;DHT22;34352;51.084;3.712;2023-04-16T01:53:59;8.70;8.80
48575;DHT22;34352;51.084;3.712;2023-04-16T01:56:27;9.50;11.00
48575;DHT22;34352;51.084;3.712;2023-04-16T01:59:17;8.60;8.10
48575;DHT22;34352;51.084;3.712;2023-04-16T02:01:44;8.70;4.30
48575;DHT22;34352;51.084;3.712;2023-04-16T02:04:11;9.80;2.50
48575;DHT22;34352;51.084;3.712;2023-04-16T02:06:38;8.70;4.30
48575;DHT22;34352;51.084;3.712;2023-04-16T02:09:08;8.90;3.10
48575;DHT22;34352;51.084;3.712;2023-04-16T02:11:35;8.20;4.70
48575;DHT22;34352;51.084;3.712;2023-04-16T02:14:03;8.70;2.90
48575;DHT22;34352;51.084;3.712;2023-04-16T02:16:32;8.80;1.00
48575;DHT22;34352;51.084;3.712;2023-04-16T02:19:05;8.80;1.00
48575;DHT22;34352;51.084;3.712;2023-04-16T02:21:33;8.80;1.00
48575;DHT22;34352;51.084;3.712;2023-04-16T02:24:02;7.40;1.00
48575;DHT22;34352;51.084;3.712;2023-04-16T02:26:38;8.80;1.00
48575;DHT22;34352;51.084;3.712;2023-04-16T02:29:13;8.70;1.00
48575;DHT22;34352;51.084;3.712;2023-04-16T02:31:46;10.20;1.00
48575;DHT22;34352;51.084;3.712;2023-04-16T02:34:15;8.90;1.00
48575;DHT22;34352;51.084;3.712;2023-04-16T02:36:41;8.80;1.00
48575;DHT22;34352;51.084;3.712;2023-04-16T02:39:09;8.70;1.50
48575;DHT22;34352;51.084;3.712;2023-04-16T02:41:35;8.80;1.00
48575;DHT22;34352;51.084;3.712;2023-04-16T02:44:03;9.20;5.70
48575;DHT22;34352;51.084;3.712;2023-04-16T02:46:31;8.70;5.60
48575;DHT22;34352;51.084;3.712;2023-04-16T02:48:58;8.70;8.90
48575;DHT22;34352;51.084;3.712;2023-04-16T02:51:28;8.70;1.00
48575;DHT22;34352;51.084;3.712;2023-04-16T02:53:54;8.30;1.00
48575;DHT22;34352;51.084;3.712;2023-04-16T02:56:21;7.70;1.00
48575;DHT22;34352;51.084;3.712;2023-04-16T02:58:46;8.60;1.00
48575;DHT22;34352;51.084;3.712;2023-04-16T03:01:16;8.70;1.00
48575;DHT22;34352;51.084;3.712;2023-04-16T03:03:48;10.60;1.00
48575;DHT22;34352;51.084;3.712;2023-04-16T03:06:15;8.80;1.00
48575;DHT22;34352;51.084;3.712;2023-04-16T03:08:43;8.70;1.00
48575;DHT22;34352;51.084;3.712;2023-04-16T03:11:09;7.70;1.00
48575;DHT22;34352;51.084;3.712;2023-04-16T03:13:39;10.00;1.00
48575;DHT22;34352;51.084;3.712;2023-04-16T03:16:15;8.50;1.00
48575;DHT22;34352;51.084;3.712;2023-04-16T03:18:42;8.60;1.00
48575;DHT22;34352;51.084;3.712;2023-04-16T03:21:08;8.60;1.00
48575;DHT22;34352;51.084;3.712;2023-04-16T03:23:38;8.60;1.00
48575;DHT22;34352;51.084;3.712;2023-04-16T03:26:11;9.20;1.00
48575;DHT22;34352;51.084;3.712;2023-04-16T03:28:40;9.80;1.00
48575;DHT22;34352;51.084;3.712;2023-04-16T03:31:11;7.70;1.00
48575;DHT22;34352;51.084;3.712;2023-04-16T03:33:41;8.60;1.00
48575;DHT22;34352;51.084;3.712;2023-04-16T03:36:09;8.60;1.00
48575;DHT22;34352;51.084;3.712;2023-04-16T03:38:37;9.30;1.00
48575;DHT22;34352;51.084;3.712;2023-04-16T03:41:05;8.50;1.00
48575;DHT22;34352;51.084;3.712;2023-04-16T03:43:40;8.60;1.00
48575;DHT22;34352;51.084;3.712;2023-04-16T03:46:08;8.70;1.00
48575;DHT22;34352;51.084;3.712;2023-04-16T03:48:35;8.70;1.00
48575;DHT22;34352;51.084;3.712;2023-04-16T03:51:03;8.60;1.00
48575;DHT22;34352;51.084;3.712;2023-04-16T03:53:31;8.80;1.00
48575;DHT22;34352;51.084;3.712;2023-04-16T03:56:04;8.80;1.00
48575;DHT22;34352;51.084;3.712;2023-04-16T03:58:30;8.80;1.00
48575;DHT22;34352;51.084;3.712;2023-04-16T04:00:57;8.80;1.00
48575;DHT22;34352;51.084;3.712;2023-04-16T04:03:25;8.80;1.00
48575;DHT22;34352;51.084;3.712;2023-04-16T04:05:50;10.10;1.00
48575;DHT22;34352;51.084;3.712;2023-04-16T04:08:17;8.80;1.00
48575;DHT22;34352;51.084;3.712;2023-04-16T04:10:44;9.50;1.00
48575;DHT22;34352;51.084;3.712;2023-04-16T04:13:11;8.90;1.00
48575;DHT22;34352;51.084;3.712;2023-04-16T04:15:43;8.90;1.00
48575;DHT22;34352;51.084;3.712;2023-04-16T04:18:16;8.90;1.00
48575;DHT22;34352;51.084;3.712;2023-04-16T04:20:44;8.80;1.00
48575;DHT22;34352;51.084;3.712;2023-04-16T04:23:10;9.00;1.00
48575;DHT22;34352;51.084;3.712;2023-04-16T04:25:36;9.40;1.00
48575;DHT22;34352;51.084;3.712;2023-04-16T04:28:04;8.90;1.00
48575;DHT22;34352;51.084;3.712;2023-04-16T04:30:48;8.90;1.00
48575;DHT22;34352;51.084;3.712;2023-04-16T04:33:16;8.90;1.00
48575;DHT22;34352;51.084;3.712;2023-04-16T04:35:44;8.90;1.00
48575;DHT22;34352;51.084;3.712;2023-04-16T04:38:21;8.90;1.00
48575;DHT22;34352;51.084;3.712;2023-04-16T04:41:11;10.50;1.00
48575;DHT22;34352;51.084;3.712;2023-04-16T04:43:39;9.00;1.00
48575;DHT22;34352;51.084;3.712;2023-04-16T04:46:15;9.10;1.00
48575;DHT22;34352;51.084;3.712;2023-04-16T04:48:44;9.10;1.00
48575;DHT22;34352;51.084;3.712;2023-04-16T04:51:13;9.80;1.00
48575;DHT22;34352;51.084;3.712;2023-04-16T04:53:43;9.10;1.00
48575;DHT22;34352;51.084;3.712;2023-04-16T04:56:11;9.10;1.00
48575;DHT22;34352;51.084;3.712;2023-04-16T04:58:39;9.20;1.00
48575;DHT22;34352;51.084;3.712;2023-04-16T05:01:07;9.00;1.00
48575;DHT22;34352;51.084;3.712;2023-04-16T05:03:33;9.30;1.00
48575;DHT22;34352;51.084;3.712;2023-04-16T05:06:10;9.80;1.00
48575;DHT22;34352;51.084;3.712;2023-04-16T05:08:37;8.80;1.00
48575;DHT22;34352;51.084;3.712;2023-04-16T05:11:05;10.60;1.00
48575;DHT22;34352;51.084;3.712;2023-04-16T05:13:39;8.80;1.00
48575;DHT22;34352;51.084;3.712;2023-04-16T05:16:11;8.80;1.00
48575;DHT22;34352;51.084;3.712;2023-04-16T05:18:37;8.20;1.00
48575;DHT22;34352;51.084;3.712;2023-04-16T05:21:03;8.70;1.00
48575;DHT22;34352;51.084;3.712;2023-04-16T05:23:31;7.60;1.00
48575;DHT22;34352;51.084;3.712;2023-04-16T05:26:00;9.60;1.00
48575;DHT22;34352;51.084;3.712;2023-04-16T05:28:26;9.00;1.00
48575;DHT22;34352;51.084;3.712;2023-04-16T05:30:54;9.10;1.00
48575;DHT22;34352;51.084;3.712;2023-04-16T05:33:20;8.90;1.00
48575;DHT22;34352;51.084;3.712;2023-04-16T05:35:54;9.70;1.00
48575;DHT22;34352;51.084;3.712;2023-04-16T05:38:21;9.40;1.00
48575;DHT22;34352;51.084;3.712;2023-04-16T05:40:51;9.10;1.00
48575;DHT22;34352;51.084;3.712;2023-04-16T05:43:19;9.20;1.00
48575;DHT22;34352;51.084;3.712;2023-04-16T05:45:50;9.10;1.00
48575;DHT22;34352;51.084;3.712;2023-04-16T05:48:16;9.00;1.00
48575;DHT22;34352;51.084;3.712;2023-04-16T05:50:55;9.00;1.00
48575;DHT22;34352;51.084;3.712;2023-04-16T05:53:22;9.20;1.00
48575;DHT22;34352;51.084;3.712;2023-04-16T05:55:49;10.20;1.00
48575;DHT22;34352;51.084;3.712;2023-04-16T05:58:16;9.10;1.00
48575;DHT22;34352;51.084;3.712;2023-04-16T06:00:52;9.20;1.00
48575;DHT22;34352;51.084;3.712;2023-04-16T06:03:18;9.20;1.00
48575;DHT22;34352;51.084;3.712;2023-04-16T06:05:47;9.20;1.00
48575;DHT22;34352;51.084;3.712;2023-04-16T06:08:20;9.00;1.00
48575;DHT22;34352;51.084;3.712;2023-04-16T06:10:50;8.70;1.00
48575;DHT22;34352;51.084;3.712;2023-04-16T06:13:17;9.10;1.00
48575;DHT22;34352;51.084;3.712;2023-04-16T06:15:44;9.20;1.00
48575;DHT22;34352;51.084;3.712;2023-04-16T06:18:09;10.00;1.00
48575;DHT22;34352;51.084;3.712;2023-04-16T06:20:35;10.10;1.00
48575;DHT22;34352;51.084;3.712;2023-04-16T06:23:13;10.30;1.00
48575;DHT22;34352;51.084;3.712;2023-04-16T06:25:45;10.10;1.00
48575;DHT22;34352;51.084;3.712;2023-04-16T06:28:16;9.50;1.00
48575;DHT22;34352;51.084;3.712;2023-04-16T06:30:45;10.10;1.00
48575;DHT22;34352;51.084;3.712;2023-04-16T06:33:25;9.60;1.00
48575;DHT22;34352;51.084;3.712;2023-04-16T06:35:53;9.70;1.00
48575;DHT22;34352;51.084;3.712;2023-04-16T06:38:36;9.90;1.00
48575;DHT22;34352;51.084;3.712;2023-04-16T06:41:03;9.50;1.00
48575;DHT22;34352;51.084;3.712;2023-04-16T06:43:31;9.60;1.00
48575;DHT22;34352;51.084;3.712;2023-04-16T06:45:58;9.50;1.00
48575;DHT22;34352;51.084;3.712;2023-04-16T06:48:34;9.60;1.00
48575;DHT22;34352;51.084;3.712;2023-04-16T06:51:03;9.60;1.00
48575;DHT22;34352;51.084;3.712;2023-04-16T06:53:29;9.20;1.00
48575;DHT22;34352;51.084;3.712;2023-04-16T06:55:57;9.60;1.00
48575;DHT22;34352;51.084;3.712;2023-04-16T06:58:23;9.60;1.00
48575;DHT22;34352;51.084;3.712;2023-04-16T07:01:05;9.30;1.00
48575;DHT22;34352;51.084;3.712;2023-04-16T07:03:48;9.80;1.00
48575;DHT22;34352;51.084;3.712;2023-04-16T07:06:16;9.80;1.00
48575;DHT22;34352;51.084;3.712;2023-04-16T07:08:42;9.70;1.00
48575;DHT22;34352;51.084;3.712;2023-04-16T07:11:09;9.90;1.00
48575;DHT22;34352;51.084;3.712;2023-04-16T07:13:35;9.90;1.00
48575;DHT22;34352;51.084;3.712;2023-04-16T07:16:01;9.90;1.00
48575;DHT22;34352;51.084;3.712;2023-04-16T07:18:28;10.00;1.00
48575;DHT22;34352;51.084;3.712;2023-04-16T07:20:55;9.40;1.00
48575;DHT22;34352;51.084;3.712;2023-04-16T07:23:25;10.60;1.00
48575;DHT22;34352;51.084;3.712;2023-04-16T07:25:51;10.70;1.00
48575;DHT22;34352;51.084;3.712;2023-04-16T07:28:18;11.00;1.00
48575;DHT22;34352;51.084;3.712;2023-04-16T07:30:45;12.00;1.00
48575;DHT22;34352;51.084;3.712;2023-04-16T07:33:12;12.40;1.00
48575;DHT22;34352;51.084;3.712;2023-04-16T07:35:38;12.50;1.00
48575;DHT22;34352;51.084;3.712;2023-04-16T07:38:05;12.50;1.00
48575;DHT22;34352;51.084;3.712;2023-04-16T07:40:32;12.60;1.00
48575;DHT22;34352;51.084;3.712;2023-04-16T07:43:19;12.60;1.00
48575;DHT22;34352;51.084;3.712;2023-04-16T07:46:23;12.10;1.00
48575;DHT22;34352;51.084;3.712;2023-04-16T07:48:58;12.40;1.00
48575;DHT22;34352;51.084;3.712;2023-04-16T07:51:25;12.60;1.00
48575;DHT22;34352;51.084;3.712;2023-04-16T07:53:53;12.80;1.00
48575;DHT22;34352;51.084;3.712;2023-04-16T07:56:20;13.00;1.00
48575;DHT22;34352;51.084;3.712;2023-04-16T07:58:49;12.50;1.00
48575;DHT22;34352;51.084;3.712;2023-04-16T08:01:15;14.10;1.00
48575;DHT22;34352;51.084;3.712;2023-04-16T08:03:42;13.30;1.00
48575;DHT22;34352;51.084;3.712;2023-04-16T08:06:09;13.20;1.00
48575;DHT22;34352;51.084;3.712;2023-04-16T08:08:36;13.00;1.00
48575;DHT22;34352;51.084;3.712;2023-04-16T08:11:10;11.60;1.00
48575;DHT22;34352;51.084;3.712;2023-04-16T08:13:38;12.30;1.00
48575;DHT22;34352;51.084;3.712;2023-04-16T08:19:23;11.70;1.00
48575;DHT22;34352;51.084;3.712;2023-04-16T08:21:49;11.60;1.00
48575;DHT22;34352;51.084;3.712;2023-04-16T08:24:15;11.60;1.00
48575;DHT22;34352;51.084;3.712;2023-04-16T08:26:40;11.60;1.00
48575;DHT22;34352;51.084;3.712;2023-04-16T08:29:06;11.60;1.00
48575;DHT22;34352;51.084;3.712;2023-04-16T08:31:32;11.60;1.00
48575;DHT22;34352;51.084;3.712;2023-04-16T08:34:00;11.60;1.00
48575;DHT22;34352;51.084;3.712;2023-04-16T08:36:26;11.80;1.00
48575;DHT22;34352;51.084;3.712;2023-04-16T08:38:52;12.30;1.00
48575;DHT22;34352;51.084;3.712;2023-04-16T08:41:21;12.60;1.00
48575;DHT22;34352;51.084;3.712;2023-04-16T08:43:48;13.30;1.00
48575;DHT22;34352;51.084;3.712;2023-04-16T08:46:16;13.90;1.00
48575;DHT22;34352;51.084;3.712;2023-04-16T08:48:45;14.10;99.90
48575;DHT22;34352;51.084;3.712;2023-04-16T08:51:14;14.20;99.90
48575;DHT22;34352;51.084;3.712;2023-04-16T08:53:51;13.90;99.90
48575;DHT22;34352;51.084;3.712;2023-04-16T08:56:20;13.80;99.90
48575;DHT22;34352;51.084;3.712;2023-04-16T08:58:48;14.20;99.90
48575;DHT22;34352;51.084;3.712;2023-04-16T09:01:15;13.30;99.90
48575;DHT22;34352;51.084;3.712;2023-04-16T09:03:45;13.30;99.90
48575;DHT22;34352;51.084;3.712;2023-04-16T09:06:11;12.80;99.90
48575;DHT22;34352;51.084;3.712;2023-04-16T09:08:38;13.00;99.90
48575;DHT22;34352;51.084;3.712;2023-04-16T09:11:03;12.90;99.90
48575;DHT22;34352;51.084;3.712;2023-04-16T09:13:33;12.90;99.90
48575;DHT22;34352;51.084;3.712;2023-04-16T09:15:58;12.90;99.90
48575;DHT22;34352;51.084;3.712;2023-04-16T09:18:24;12.90;99.90
48575;DHT22;34352;51.084;3.712;2023-04-16T09:20:51;12.90;99.90
48575;DHT22;34352;51.084;3.712;2023-04-16T09:23:18;13.00;99.90
48575;DHT22;34352;51.084;3.712;2023-04-16T09:25:43;12.80;99.90
48575;DHT22;34352;51.084;3.712;2023-04-16T09:28:09;12.80;99.90
48575;DHT22;34352;51.084;3.712;2023-04-16T09:30:36;12.70;99.90
48575;DHT22;34352;51.084;3.712;2023-04-16T09:33:19;12.80;99.90
48575;DHT22;34352;51.084;3.712;2023-04-16T09:35:49;12.90;99.90
48575;DHT22;34352;51.084;3.712;2023-04-16T09:38:15;13.00;99.90
48575;DHT22;34352;51.084;3.712;2023-04-16T09:40:40;13.20;99.90
48575;DHT22;34352;51.084;3.712;2023-04-16T09:43:17;13.40;99.90
48575;DHT22;34352;51.084;3.712;2023-04-16T09:45:51;13.40;99.90
48575;DHT22;34352;51.084;3.712;2023-04-16T09:48:33;13.40;99.90
48575;DHT22;34352;51.084;3.712;2023-04-16T09:50:59;13.50;99.90
48575;DHT22;34352;51.084;3.712;2023-04-16T09:53:27;13.70;99.90
48575;DHT22;34352;51.084;3.712;2023-04-16T09:55:59;14.00;99.90
48575;DHT22;34352;51.084;3.712;2023-04-16T09:58:25;13.90;99.90
48575;DHT22;34352;51.084;3.712;2023-04-16T10:01:04;13.80;99.90
48575;DHT22;34352;51.084;3.712;2023-04-16T10:03:33;13.90;99.90
48575;DHT22;34352;51.084;3.712;2023-04-16T10:06:21;13.90;99.90
48575;DHT22;34352;51.084;3.712;2023-04-16T10:08:52;13.80;99.90
48575;DHT22;34352;51.084;3.712;2023-04-16T10:11:21;13.70;99.90
48575;DHT22;34352;51.084;3.712;2023-04-16T10:13:47;13.80;99.90
48575;DHT22;34352;51.084;3.712;2023-04-16T10:16:13;14.40;99.90
48575;DHT22;34352;51.084;3.712;2023-04-16T10:18:40;14.10;99.90
48575;DHT22;34352;51.084;3.712;2023-04-16T10:21:06;14.20;99.90
48575;DHT22;34352;51.084;3.712;2023-04-16T10:23:33;14.00;99.90
48575;DHT22;34352;51.084;3.712;2023-04-16T10:26:00;13.60;99.90
48575;DHT22;34352;51.084;3.712;2023-04-16T10:28:27;13.60;99.90
48575;DHT22;34352;51.084;3.712;2023-04-16T10:30:56;13.60;99.90
48575;DHT22;34352;51.084;3.712;2023-04-16T10:33:27;13.70;99.90
48575;DHT22;34352;51.084;3.712;2023-04-16T10:36:14;13.60;99.90
48575;DHT22;34352;51.084;3.712;2023-04-16T10:38:47;13.70;99.90
48575;DHT22;34352;51.084;3.712;2023-04-16T10:41:14;13.60;99.90
48575;DHT22;34352;51.084;3.712;2023-04-16T10:43:45;13.60;99.90
48575;DHT22;34352;51.084;3.712;2023-04-16T10:46:25;13.30;99.90
48575;DHT22;34352;51.084;3.712;2023-04-16T10:48:57;13.30;99.90
48575;DHT22;34352;51.084;3.712;2023-04-16T10:51:33;13.40;99.90
48575;DHT22;34352;51.084;3.712;2023-04-16T10:54:30;13.10;99.90
48575;DHT22;34352;51.084;3.712;2023-04-16T10:56:57;13.40;99.90
48575;DHT22;34352;51.084;3.712;2023-04-16T10:59:30;13.80;99.90
48575;DHT22;34352;51.084;3.712;2023-04-16T11:01:58;13.90;99.90
48575;DHT22;34352;51.084;3.712;2023-04-16T11:04:37;14.10;99.90
48575;DHT22;34352;51.084;3.712;2023-04-16T11:07:16;14.20;99.90
48575;DHT22;34352;51.084;3.712;2023-04-16T11:12:21;14.40;99.90
48575;DHT22;34352;51.084;3.712;2023-04-16T11:17:46;14.20;99.90
48575;DHT22;34352;51.084;3.712;2023-04-16T11:20:26;13.80;99.90
48575;DHT22;34352;51.084;3.712;2023-04-16T11:22:54;13.60;99.90
48575;DHT22;34352;51.084;3.712;2023-04-16T11:25:21;13.60;99.90
48575;DHT22;34352;51.084;3.712;2023-04-16T11:27:47;13.80;99.90
48575;DHT22;34352;51.084;3.712;2023-04-16T11:30:13;13.70;99.90
48575;DHT22;34352;51.084;3.712;2023-04-16T11:32:40;13.50;99.90
48575;DHT22;34352;51.084;3.712;2023-04-16T11:35:18;13.50;99.90
48575;DHT22;34352;51.084;3.712;2023-04-16T11:37:44;13.50;99.90
48575;DHT22;34352;51.084;3.712;2023-04-16T11:40:12;13.50;99.90
48575;DHT22;34352;51.084;3.712;2023-04-16T11:42:39;13.40;99.90
48575;DHT22;34352;51.084;3.712;2023-04-16T11:45:09;13.40;99.90
48575;DHT22;34352;51.084;3.712;2023-04-16T11:47:49;13.50;1.00
48575;DHT22;34352;51.084;3.712;2023-04-16T11:50:26;13.50;99.90
48575;DHT22;34352;51.084;3.712;2023-04-16T11:52:54;13.60;99.90
48575;DHT22;34352;51.084;3.712;2023-04-16T11:55:20;12.40;99.90
48575;DHT22;34352;51.084;3.712;2023-04-16T11:57:46;13.80;99.90
48575;DHT22;34352;51.084;3.712;2023-04-16T12:00:13;13.60;99.90
48575;DHT22;34352;51.084;3.712;2023-04-16T12:02:44;13.50;99.90
48575;DHT22;34352;51.084;3.712;2023-04-16T12:05:27;14.90;99.90
48575;DHT22;34352;51.084;3.712;2023-04-16T12:08:00;13.70;1.00
48575;DHT22;34352;51.084;3.712;2023-04-16T12:10:26;13.70;1.00
48575;DHT22;34352;51.084;3.712;2023-04-16T12:12:52;13.90;1.00
48575;DHT22;34352;51.084;3.712;2023-04-16T12:15:17;14.10;99.90
48575;DHT22;34352;51.084;3.712;2023-04-16T12:17:43;14.30;99.90
48575;DHT22;34352;51.084;3.712;2023-04-16T12:20:14;14.50;99.90
48575;DHT22;34352;51.084;3.712;2023-04-16T12:22:45;14.40;99.90
48575;DHT22;34352;51.084;3.712;2023-04-16T12:25:15;14.40;99.90
48575;DHT22;34352;51.084;3.712;2023-04-16T12:30:15;14.50;99.90
48575;DHT22;34352;51.084;3.712;2023-04-16T12:32:42;14.50;99.90
48575;DHT22;34352;51.084;3.712;2023-04-16T12:35:11;14.30;99.90
48575;DHT22;34352;51.084;3.712;2023-04-16T12:37:38;14.40;99.90
48575;DHT22;34352;51.084;3.712;2023-04-16T12:40:05;14.20;99.90
48575;DHT22;34352;51.084;3.712;2023-04-16T12:42:31;14.20;99.90
48575;DHT22;34352;51.084;3.712;2023-04-16T12:45:04;14.10;99.90
48575;DHT22;34352;51.084;3.712;2023-04-16T12:47:32;14.00;99.90
48575;DHT22;34352;51.084;3.712;2023-04-16T12:49:59;14.00;99.90
48575;DHT22;34352;51.084;3.712;2023-04-16T12:52:25;14.40;99.90
48575;DHT22;34352;51.084;3.712;2023-04-16T12:54:52;13.90;99.90
48575;DHT22;34352;51.084;3.712;2023-04-16T12:57:18;13.90;99.90
48575;DHT22;34352;51.084;3.712;2023-04-16T12:59:44;13.90;99.90
48575;DHT22;34352;51.084;3.712;2023-04-16T13:02:11;13.80;99.90
48575;DHT22;34352;51.084;3.712;2023-04-16T13:04:37;13.80;99.90
48575;DHT22;34352;51.084;3.712;2023-04-16T13:07:03;13.80;1.00
48575;DHT22;34352;51.084;3.712;2023-04-16T13:09:29;14.10;1.00
48575;DHT22;34352;51.084;3.712;2023-04-16T13:11:55;14.10;99.90
48575;DHT22;34352;51.084;3.712;2023-04-16T13:14:22;14.20;99.90
48575;DHT22;34352;51.084;3.712;2023-04-16T13:16:47;14.10;99.90
48575;DHT22;34352;51.084;3.712;2023-04-16T13:19:15;14.20;99.90
48575;DHT22;34352;51.084;3.712;2023-04-16T13:21:41;14.30;99.90
48575;DHT22;34352;51.084;3.712;2023-04-16T13:24:09;14.20;99.90
48575;DHT22;34352;51.084;3.712;2023-04-16T13:26:34;14.10;99.90
48575;DHT22;34352;51.084;3.712;2023-04-16T13:29:00;14.10;99.90
48575;DHT22;34352;51.084;3.712;2023-04-16T13:31:25;14.40;99.90
48575;DHT22;34352;51.084;3.712;2023-04-16T13:33:53;14.60;99.90
48575;DHT22;34352;51.084;3.712;2023-04-16T13:36:19;14.60;99.90
48575;DHT22;34352;51.084;3.712;2023-04-16T13:38:45;14.50;99.90
48575;DHT22;34352;51.084;3.712;2023-04-16T13:41:10;14.40;99.90
48575;DHT22;34352;51.084;3.712;2023-04-16T13:43:36;14.50;99.90
48575;DHT22;34352;51.084;3.712;2023-04-16T13:46:02;14.50;99.90
48575;DHT22;34352;51.084;3.712;2023-04-16T13:48:27;14.90;99.90
48575;DHT22;34352;51.084;3.712;2023-04-16T13:50:53;15.20;99.90
48575;DHT22;34352;51.084;3.712;2023-04-16T13:53:21;15.30;99.90
48575;DHT22;34352;51.084;3.712;2023-04-16T13:55:48;15.30;99.90
48575;DHT22;34352;51.084;3.712;2023-04-16T13:58:14;15.20;99.90
48575;DHT22;34352;51.084;3.712;2023-04-16T14:00:41;15.00;99.90
48575;DHT22;34352;51.084;3.712;2023-04-16T14:03:07;15.00;99.90
48575;DHT22;34352;51.084;3.712;2023-04-16T14:05:32;15.10;99.90
48575;DHT22;34352;51.084;3.712;2023-04-16T14:07:59;15.20;99.90
48575;DHT22;34352;51.084;3.712;2023-04-16T14:10:26;15.30;99.90
48575;DHT22;34352;51.084;3.712;2023-04-16T14:12:51;15.40;99.90
48575;DHT22;34352;51.084;3.712;2023-04-16T14:15:17;15.40;99.90
48575;DHT22;34352;51.084;3.712;2023-04-16T14:17:43;15.30;99.90
48575;DHT22;34352;51.084;3.712;2023-04-16T14:20:11;15.20;99.90
48575;DHT22;34352;51.084;3.712;2023-04-16T14:22:37;15.10;99.90
48575;DHT22;34352;51.084;3.712;2023-04-16T14:25:03;15.20;99.90
48575;DHT22;34352;51.084;3.712;2023-04-16T14:27:29;15.30;99.90
48575;DHT22;34352;51.084;3.712;2023-04-16T14:29:55;15.20;99.90
48575;DHT22;34352;51.084;3.712;2023-04-16T14:32:21;15.40;99.90
48575;DHT22;34352;51.084;3.712;2023-04-16T14:34:49;15.80;99.90
48575;DHT22;34352;51.084;3.712;2023-04-16T14:37:16;15.90;99.90
48575;DHT22;34352;51.084;3.712;2023-04-16T14:39:43;15.90;99.90
48575;DHT22;34352;51.084;3.712;2023-04-16T14:42:09;15.80;99.90
48575;DHT22;34352;51.084;3.712;2023-04-16T14:44:35;15.70;99.90
48575;DHT22;34352;51.084;3.712;2023-04-16T14:47:01;15.90;99.90
48575;DHT22;34352;51.084;3.712;2023-04-16T14:49:29;15.90;99.90
48575;DHT22;34352;51.084;3.712;2023-04-16T14:51:55;15.70;99.90
48575;DHT22;34352;51.084;3.712;2023-04-16T14:54:21;15.90;99.90
48575;DHT22;34352;51.084;3.712;2023-04-16T14:56:47;15.60;99.90
48575;DHT22;34352;51.084;3.712;2023-04-16T14:59:13;15.60;99.90
48575;DHT22;34352;51.084;3.712;2023-04-16T15:01:39;15.30;99.90
48575;DHT22;34352;51.084;3.712;2023-04-16T15:04:05;15.30;99.90
48575;DHT22;34352;51.084;3.712;2023-04-16T15:06:32;15.40;99.90
48575;DHT22;34352;51.084;3.712;2023-04-16T15:08:59;14.80;99.90
48575;DHT22;34352;51.084;3.712;2023-04-16T15:11:25;14.90;99.90
48575;DHT22;34352;51.084;3.712;2023-04-16T15:13:52;14.80;99.90
48575;DHT22;34352;51.084;3.712;2023-04-16T15:16:18;14.90;99.90
48575;DHT22;34352;51.084;3.712;2023-04-16T15:18:44;15.10;99.90
48575;DHT22;34352;51.084;3.712;2023-04-16T15:21:10;15.20;99.90
48575;DHT22;34352;51.084;3.712;2023-04-16T15:23:37;15.30;99.90
48575;DHT22;34352;51.084;3.712;2023-04-16T15:26:03;15.30;99.90
48575;DHT22;34352;51.084;3.712;2023-04-16T15:28:29;15.30;99.90
48575;DHT22;34352;51.084;3.712;2023-04-16T15:30:56;15.20;99.90
48575;DHT22;34352;51.084;3.712;2023-04-16T15:33:22;15.40;99.90
48575;DHT22;34352;51.084;3.712;2023-04-16T15:35:49;15.30;99.90
48575;DHT22;34352;51.084;3.712;2023-04-16T15:38:16;15.20;99.90
48575;DHT22;34352;51.084;3.712;2023-04-16T15:40:42;15.00;99.90
48575;DHT22;34352;51.084;3.712;2023-04-16T15:43:07;14.60;99.90
48575;DHT22;34352;51.084;3.712;2023-04-16T15:45:35;14.60;99.90
48575;DHT22;34352;51.084;3.712;2023-04-16T15:48:01;14.70;99.90
48575;DHT22;34352;51.084;3.712;2023-04-16T15:50:31;14.80;99.90
48575;DHT22;34352;51.084;3.712;2023-04-16T15:52:57;14.50;99.90
48575;DHT22;34352;51.084;3.712;2023-04-16T15:55:23;14.60;99.90
48575;DHT22;34352;51.084;3.712;2023-04-16T15:57:51;14.80;99.90
48575;DHT22;34352;51.084;3.712;2023-04-16T16:00:18;14.80;99.90
48575;DHT22;34352;51.084;3.712;2023-04-16T16:02:46;14.60;99.90
48575;DHT22;34352;51.084;3.712;2023-04-16T16:05:13;14.50;99.90
48575;DHT22;34352;51.084;3.712;2023-04-16T16:07:40;14.10;99.90